• Join FlightAware (Why Join?)
  • Login
  • US Flag 
Trick or treat! (Boo!!) 
12:27AM EDT


 

Airport Tracker/Info


-or-


 

Live Flight TrackerFlight Track Log ✈ VH-VQB ✈ 14-Apr-2013 ✈ YMML / MEL - YPPH / PER

Flight Track Log - Related Links

Times and Time Zones

All times are in EDT time to prevent confusion due to time zone crossing. See the VH-VQB flight status page for this flight to view local times or setup timezone preferences in your user account.

Time Position Orientation Groundspeed Altitude Reporting Facility
EDT Latitude Longitude Course Direction KTS MPH feet Rate Location/Type
08:13AM -37.6600 144.8140 274° West 167 192 1,100  Level FlightAware
08:13AM -37.6580 144.7840 275° West 184 212 2,000 1,500 Climbing FlightAware
08:13AM -37.6560 144.7550 275° West 215 247 2,500 1,020 Climbing FlightAware
08:14AM -37.6550 144.7420 276° West 229 264 2,600 1,800 Climbing FlightAware
08:14AM -37.6530 144.6970 273° West 259 298 3,700 2,700 Climbing FlightAware
08:15AM -37.6500 144.6520 275° West 264 304 5,300 2,400 Climbing FlightAware
08:15AM -37.6480 144.6160 275° West 289 333 5,900 1,680 Climbing FlightAware
08:15AM -37.6469 144.5977 275° West 278 320 6,100 2,400 Climbing Aus ATC (RADAR)
08:16AM -37.6450 144.5590 274° West 309 356 7,100 2,640 Climbing FlightAware
08:16AM -37.6420 144.5110 274° West 314 361 8,400 3,360 Climbing FlightAware
08:16AM -37.6380 144.4531 274° West 303 349 10,100 3,300 Climbing Aus ATC (RADAR)
08:17AM -37.6380 144.4420 274° West 309 356 10,600 3,180 Climbing FlightAware
08:17AM -37.6364 144.4263 274° West 301 346 10,900 2,340 Climbing Aus ATC (RADAR)
08:17AM -37.6328 144.3711 274° West 309 356 11,900 1,980 Climbing Aus ATC (RADAR)
08:17AM -37.6320 144.3590 274° West 322 371 12,300 2,280 Climbing FlightAware
08:18AM -37.6280 144.2930 274° West 328 377 13,700 2,520 Climbing FlightAware
08:18AM -37.6247 144.2479 274° West 322 371 14,500 2,100 Climbing Aus ATC (RADAR)
08:19AM -37.6230 144.2140 274° West 337 388 15,100 2,100 Climbing FlightAware
08:19AM -37.6170 144.1240 275° West 341 392 16,900 2,220 Climbing FlightAware
08:20AM -37.6119 144.0598 275° West 336 387 17,800 1,500 Climbing Aus ATC (RADAR)
08:20AM -37.6110 144.0460 274° West 355 409 17,900 360 Climbing FlightAware
08:20AM -37.6101 144.0287 274° West 345 397 17,900 1,260 Level Aus ATC (RADAR)
08:21AM -37.6055 143.9641 274° West 363 418 18,600 1,380 Climbing Aus ATC (RADAR)
08:21AM -37.6050 143.9490 274° West 374 430 18,900 2,040 Climbing FlightAware
08:21AM -37.5981 143.8560 274° West 366 421 20,300 1,920 Climbing Aus ATC (RADAR)
08:21AM -37.5990 143.8600 274° West 375 432 20,200 1,200 Descending FlightAware
08:22AM -37.5930 143.7750 275° West 378 435 21,200 1,320 Climbing FlightAware
08:23AM -37.5860 143.6860 276° West 386 444 22,000 1,320 Climbing FlightAware
08:23AM -37.5822 143.6349 276° West 380 437 22,500 1,500 Climbing Aus ATC (RADAR)
08:23AM -37.5830 143.6390 276° West 389 448 22,500 1,380 Level FlightAware
08:24AM -37.5760 143.5470 275° West 390 449 23,500 1,320 Climbing FlightAware
08:24AM -37.5700 143.4570 275° West 395 455 24,300 1,200 Climbing FlightAware
08:25AM -37.5649 143.3959 275° West 391 450 24,800 1,200 Climbing Aus ATC (RADAR)
08:25AM -37.5640 143.3850 275° West 398 458 24,900 1,080 Climbing FlightAware
08:26AM -37.5566 143.2800 275° West 396 456 25,700 1,080 Climbing Aus ATC (RADAR)
08:26AM -37.5560 143.2720 275° West 405 466 25,800 1,020 Climbing FlightAware
08:26AM -37.5482 143.1741 275° West 400 460 26,500 1,020 Climbing Aus ATC (RADAR)
08:26AM -37.5500 143.1880 275° West 408 470 26,500 1,080 Level FlightAware
08:27AM -37.5430 143.0990 276° West 407 468 27,200 1,380 Climbing FlightAware
08:28AM -37.5308 142.9510 276° West 398 458 28,700 1,560 Climbing Aus ATC (RADAR)
08:28AM -37.5291 142.9167 274° West 394 453 29,100 1,320 Climbing Aus ATC (RADAR)
08:29AM -37.5226 142.8478 277° West 391 450 29,700 720 Climbing Aus ATC (RADAR)
08:29AM -37.5147 142.7458 276° West 386 444 30,000 240 Climbing Aus ATC (RADAR)
08:30AM -37.5120 142.7040 276° West 388 447 30,000  Level FlightAware
08:30AM -37.5089 142.6558 276° West 387 445 30,000  Level Aus ATC (RADAR)
08:31AM -37.5024 142.5758 276° West 391 450 30,000  Level Aus ATC (RADAR)
08:31AM -37.4950 142.4910 276° West 397 457 30,000  Level FlightAware
08:32AM -37.4914 142.4381 276° West 394 453 30,000  Level Aus ATC (RADAR)
08:32AM -37.4880 142.4060 276° West 397 457 30,000  Level FlightAware
08:32AM -37.4846 142.3578 276° West 393 452 30,000  Level Aus ATC (RADAR)
08:33AM -37.4820 142.3270 276° West 397 457 30,000  Level FlightAware
08:33AM -37.4754 142.2432 276° West 394 453 30,000  Level Aus ATC (RADAR)
08:33AM -37.4750 142.2450 276° West 396 456 30,000  Level FlightAware
08:34AM -37.4680 142.1660 276° West 395 455 30,000  Level FlightAware
08:34AM -37.4661 142.1405 276° West 393 452 30,000  Level Aus ATC (RADAR)
08:34AM -37.4610 142.0880 276° West 394 453 30,000  Level FlightAware
08:35AM -37.4550 142.0080 275° West 394 453 30,000 -120 Level FlightAware
08:35AM -37.4509 141.9581 275° West 391 450 29,900  Descending Aus ATC (RADAR)
08:36AM -37.4480 141.9260 275° West 394 453 30,000 120 Climbing FlightAware
08:36AM -37.4447 141.8787 275° West 391 450 30,000  Level Aus ATC (RADAR)
08:36AM -37.4420 141.8570 275° West 394 453 30,000  Level FlightAware
08:37AM -37.4339 141.7647 275° West 393 452 30,000  Level Aus ATC (RADAR)
08:37AM -37.4340 141.7650 275° West 394 453 30,000  Level FlightAware
08:37AM -37.4260 141.6760 276° West 395 455 30,000  Level FlightAware
08:38AM -37.4190 141.5960 276° West 396 456 30,000  Level FlightAware
08:38AM -37.4149 141.5475 276° West 395 455 30,000  Level Aus ATC (RADAR)
08:39AM -37.4110 141.5140 276° West 397 457 30,000 -120 Level FlightAware
08:39AM -37.4036 141.4211 276° West 397 457 29,900  Descending Aus ATC (RADAR)
08:39AM -37.4020 141.4130 276° West 398 458 30,000 120 Climbing FlightAware
08:40AM -37.3950 141.3290 276° West 398 458 30,000  Level FlightAware
08:40AM -37.3906 141.2834 276° West 397 457 30,000  Level Aus ATC (RADAR)
08:40AM -37.3877 141.2488 276° West 397 457 30,000  Level Aus ATC (RADAR)
08:41AM -37.3850 141.2250 276° West 400 460 30,000  Level FlightAware
08:41AM -37.3809 141.1797 276° West 398 458 30,000  Level Aus ATC (RADAR)
08:41AM -37.3770 141.1440 276° West 399 459 30,000  Level FlightAware
08:42AM -37.3703 141.0643 276° West 399 459 30,000  Level Aus ATC (RADAR)
08:42AM -37.3700 141.0640 276° West 400 460 30,000  Level FlightAware
08:42AM -37.3648 141.0068 276° West 399 459 30,000  Level Aus ATC (RADAR)
08:42AM -37.3620 140.9840 276° West 400 460 30,000  Level FlightAware
08:43AM -37.3586 140.9377 276° West 398 458 30,000  Level Aus ATC (RADAR)
08:43AM -37.3560 140.9170 276° West 400 460 30,000  Level FlightAware
08:43AM -37.3480 140.8320 277° West 400 460 30,000  Level FlightAware
08:44AM -37.3410 140.7640 277° West 400 460 30,000  Level FlightAware
08:45AM -37.3330 140.6730 276° West 399 459 30,000  Level FlightAware
08:45AM -37.3240 140.5850 277° West 398 458 30,000  Level FlightAware
08:46AM -37.3180 140.5090 276° West 398 458 30,000  Level FlightAware
08:46AM -37.3090 140.4310 278° West 399 459 30,000  Level FlightAware
08:47AM -37.3017 140.3517 278° West 399 459 30,000  Level Aus ATC (RADAR)
08:47AM -37.2980 140.3150 278° West 399 459 30,000  Level FlightAware
08:48AM -37.2908 140.2490 278° West 398 458 30,000  Level Aus ATC (RADAR)
08:48AM -37.2920 140.2570 278° West 399 459 30,000  Level FlightAware
08:48AM -37.2803 140.1454 278° West 400 460 30,000  Level Aus ATC (RADAR)
08:48AM -37.2840 140.1780 278° West 399 459 30,000  Level FlightAware
08:49AM -37.2746 140.0880 278° West 398 458 30,000  Level Aus ATC (RADAR)
08:49AM -37.2790 140.1200 278° West 399 459 30,000  Level FlightAware
08:49AM -37.2666 140.0192 278° West 399 459 30,000  Level Aus ATC (RADAR)
08:50AM -37.2710 140.0410 278° West 399 459 30,000  Level FlightAware
08:50AM -37.2453 139.8833 278° West 397 457 30,000  Level Aus ATC (RADAR)
08:50AM -37.2630 139.9630 278° West 399 459 30,000  Level FlightAware
08:51AM -37.2369 139.8263 278° West 398 458 30,000  Level Aus ATC (RADAR)
08:51AM -37.2268 139.7582 281° West 398 458 30,000  Level Aus ATC (RADAR)
08:52AM -37.2105 139.6442 280° West 398 458 30,000  Level Aus ATC (RADAR)
08:53AM -37.1988 139.5647 281° West 397 457 30,000  Level Aus ATC (RADAR)
08:54AM -37.1720 139.3808 280° West 407 468 30,000  Level Aus ATC (RADAR)
08:54AM -37.1667 139.3475 281° West 402 463 30,000  Level Aus ATC (RADAR)
08:54AM -37.1660 139.3490 281° West 397 457 30,000  Level FlightAware
08:55AM -37.1540 139.2560 279° West 397 457 30,000  Level FlightAware
08:56AM -37.1357 139.1439 279° West 398 458 30,000  Level Aus ATC (RADAR)
08:56AM -37.1370 139.1550 279° West 401 461 30,000  Level FlightAware
08:56AM -37.1285 139.0981 279° West 399 459 30,000  Level Aus ATC (RADAR)
08:56AM -37.1250 139.0710 279° West 403 464 30,000  Level FlightAware
08:57AM -37.1100 138.9530 279° West 403 464 30,000  Level FlightAware
08:57AM -37.0978 138.8999 279° West 410 472 30,000 120 Level Aus ATC (RADAR)
08:58AM -37.0852 138.8176 279° West 410 472 30,100  Climbing Aus ATC (RADAR)
08:58AM -37.1000 138.8740 279° West 403 464 30,000 -180 Descending FlightAware
08:59AM -37.0900 138.7960 279° West 403 464 30,000 60 Level FlightAware
08:59AM -37.0594 138.6521 279° West 414 476 30,100 180 Climbing Aus ATC (RADAR)
08:59AM -37.0610 138.6640 279° West 413 475 30,100 -240 Level FlightAware
09:00AM -37.0490 138.5920 282° West 413 475 30,000 -120 Descending FlightAware
09:00AM -37.0354 138.5003 282° West 413 475 30,000  Level Aus ATC (RADAR)
09:00AM -37.0340 138.4960 282° West 413 475 30,000  Level FlightAware
09:01AM -37.0240 138.4280 280° West 414 476 30,000  Level FlightAware
09:01AM -37.0129 138.3604 280° West 410 472 30,000  Level Aus ATC (RADAR)
09:01AM -37.0150 138.3750 280° West 414 476 30,000  Level FlightAware
09:02AM -37.0030 138.3000 281° West 414 476 30,000  Level FlightAware
09:02AM -36.9891 138.2086 281° West 412 474 30,000  Level Aus ATC (RADAR)
09:03AM -36.9840 138.1790 281° West 416 479 30,000  Level FlightAware
09:03AM -36.9700 138.0960 282° West 415 478 30,000  Level FlightAware
09:04AM -36.9530 137.9860 281° West 415 478 30,000  Level FlightAware
09:04AM -36.9407 137.9154 281° West 410 472 30,000  Level Aus ATC (RADAR)
09:05AM -36.9400 137.9060 281° West 415 478 30,000  Level FlightAware
09:05AM -36.9310 137.8460 281° West 415 478 30,000  Level FlightAware
09:06AM -36.9090 137.7210 282° West 420 483 30,000  Level FlightAware
09:06AM -36.8944 137.6321 282° West 418 481 30,000  Level Aus ATC (RADAR)
09:07AM -36.8970 137.6440 282° West 420 483 30,000  Level FlightAware
09:07AM -36.8840 137.5630 281° West 420 483 30,000 60 Level FlightAware
09:08AM -36.8663 137.4641 281° West 423 487 30,100  Climbing Aus ATC (RADAR)
09:08AM -36.8720 137.4820 281° West 420 483 30,000 -120 Descending FlightAware
09:09AM -36.8590 137.4010 281° West 420 483 30,000  Level FlightAware
09:09AM -36.8418 137.3187 281° West 430 495 30,000  Level Aus ATC (RADAR)
09:09AM -36.8430 137.3000 281° West 420 483 30,000  Level FlightAware
09:10AM -36.8340 137.2390 280° West 420 483 30,000  Level FlightAware
09:11AM -36.7902 137.0161 280° West 430 495 30,000  Level Aus ATC (RADAR)
09:12AM -36.7654 136.8713 282° West 430 495 30,000  Level Aus ATC (RADAR)
09:13AM -36.7378 136.7126 282° West 435 501 30,000  Level Aus ATC (RADAR)
09:14AM -36.7123 136.5656 282° West 437 503 30,100  Climbing Aus ATC (RADAR)
09:15AM -36.6819 136.3940 282° West 437 503 30,000 -60 Descending Aus ATC (RADAR)
09:16AM -36.6533 136.2341 283° West 441 507 30,000  Level Aus ATC (RADAR)
09:17AM -36.6255 136.0854 283° West 443 510 30,000  Level Aus ATC (RADAR)
09:18AM -36.5997 135.9380 282° West 438 504 30,100  Climbing Aus ATC (RADAR)
09:19AM -36.5696 135.7768 283° West 442 509 30,000 -60 Descending Aus ATC (RADAR)
09:20AM -36.5431 135.6283 283° West 444 511 30,000  Level Aus ATC (RADAR)
09:21AM -36.5280 135.5450 283° West 446 513 30,000  Level FlightAware
09:21AM -36.5147 135.4781 283° West 447 514 30,000  Level Aus ATC (RADAR)
09:21AM -36.5140 135.4600 283° West 446 513 30,000  Level FlightAware
09:22AM -36.4960 135.3750 285° West 448 516 30,000  Level FlightAware
09:22AM -36.4851 135.3161 285° West 447 514 30,000  Level Aus ATC (RADAR)
09:23AM -36.4670 135.2190 285° West 448 516 30,000  Level FlightAware
09:24AM -36.4510 135.1340 283° West 448 516 30,000 60 Level FlightAware
09:24AM -36.4236 135.0037 283° West 452 520 30,100  Climbing Aus ATC (RADAR)
09:24AM -36.4350 135.0490 283° West 448 516 30,000 -180 Descending FlightAware
09:25AM -36.4200 134.9630 282° West 448 516 30,000  Level FlightAware
09:25AM -36.3994 134.8426 282° West 446 513 30,000  Level Aus ATC (RADAR)
09:26AM -36.4000 134.8570 282° West 448 516 30,000  Level FlightAware
09:26AM -36.3793 134.6942 282° West 439 505 30,000  Level Aus ATC (RADAR)
09:26AM -36.3840 134.7710 282° West 448 516 30,000  Level FlightAware
09:27AM -36.3690 134.6220 277° West 30,000  Level FlightAware
09:27AM -36.3562 134.5455 277° West 440 506 30,000  Level Aus ATC (RADAR)
09:28AM -36.3430 134.4510 277° West 439 505 30,000  Level FlightAware
09:28AM -36.3300 134.3849 277° West 441 507 30,000  Level Aus ATC (RADAR)
09:29AM -36.3290 134.3520 277° West 439 505 30,000  Level FlightAware
09:29AM -36.3076 134.2376 277° West 438 504 30,000  Level Aus ATC (RADAR)
09:29AM -36.3130 134.2480 277° West 438 504 30,000  Level FlightAware
09:30AM -36.3010 134.1630 280° West 438 504 30,000  Level FlightAware
09:30AM -36.2868 134.0897 280° West 440 506 30,000  Level Aus ATC (RADAR)
09:31AM -36.2860 134.0580 280° West 438 504 30,000  Level FlightAware
09:31AM -36.2567 133.9265 280° West 464 534 30,000  Level Aus ATC (RADAR)
09:32AM -36.2740 133.9740 280° West 438 504 30,000  Level FlightAware
09:32AM -36.2620 133.8900 280° West 438 504 30,000  Level FlightAware
09:33AM -36.2500 133.8060 280° West 438 504 30,000  Level FlightAware
09:34AM -36.2380 133.7220 280° West 438 504 30,000  Level FlightAware
09:34AM -36.2290 133.6590 280° West 438 504 30,000  Level FlightAware
09:35AM -36.1764 133.4284 111° Southeast 30,000  Level Aus ATC (Calculated)
09:35AM -36.2140 133.5530 280° West 438 504 30,000  Level FlightAware
09:36AM -36.2020 133.4690 280° West 438 504 30,000  Level FlightAware
09:36AM -36.1900 133.3850 280° West 438 504 30,000  Level FlightAware
09:37AM -36.1810 133.3220 280° West 438 504 30,000  Level FlightAware
09:38AM -36.1660 133.2170 280° West 438 504 30,000  Level FlightAware
09:38AM -36.1540 133.1330 280° West 438 504 30,000  Level FlightAware
09:41AM -36.1000 132.8295 282° West  Level FlightAware Approximate
09:42AM -36.0752 132.6917 283° West  Level FlightAware Approximate
09:42AM -35.9985 132.3417 282° West 30,000  Level Aus ATC (Calculated)
09:44AM -35.9681 132.1623 282° West  Level FlightAware Approximate
09:44AM -35.9628 132.1310 282° West 30,000  Level Aus ATC (Calculated)
09:46AM -35.9299 131.9394 282° West  Level FlightAware Approximate
09:46AM -35.9085 131.8153 283° West 30,000  Level Aus ATC (Calculated)
09:47AM -35.9060 131.8009 282° West  Level FlightAware Approximate
09:48AM -35.8840 131.6746 282° West  Level FlightAware Approximate
09:48AM -35.8672 131.5788 283° West 30,000  Level Aus ATC (Calculated)
09:48AM -35.8672 131.5788 283° West 30,000  Level Aus ATC (Calculated)
09:49AM -35.8597 131.5364 282° West  Level FlightAware Approximate
09:50AM -35.8352 131.3974 282° West  Level FlightAware Approximate
09:51AM -35.8598 131.5369 102° East  Level FlightAware Approximate
09:52AM -35.8436 131.4456 282° West  Level FlightAware Approximate
09:53AM -35.8184 131.3063 283° West  Level FlightAware Approximate
09:54AM -35.7327 130.8409 282° West  Level FlightAware Approximate
09:55AM -35.7069 130.7020 283° West  Level FlightAware Approximate
09:56AM -35.6808 130.5632 283° West  Level FlightAware Approximate
09:57AM -35.6546 130.4244 283° West  Level FlightAware Approximate
09:58AM -35.6283 130.2857 283° West  Level FlightAware Approximate
09:59AM -35.6018 130.1472 283° West  Level FlightAware Approximate
10:00AM -35.5751 130.0087 283° West  Level FlightAware Approximate
10:01AM -35.5483 129.8703 283° West  Level FlightAware Approximate
10:02AM -35.5213 129.7320 283° West  Level FlightAware Approximate
10:03AM -35.4941 129.5938 284° West  Level FlightAware Approximate
10:04AM -35.4668 129.4557 284° West  Level FlightAware Approximate
10:05AM -35.4394 129.3177 284° West  Level FlightAware Approximate
10:06AM -35.4118 129.1797 284° West  Level FlightAware Approximate
10:07AM -35.3840 129.0419 284° West  Level FlightAware Approximate
10:08AM -35.3561 128.9042 284° West  Level FlightAware Approximate
10:09AM -35.3280 128.7666 284° West  Level FlightAware Approximate
10:10AM -35.2997 128.6290 284° West  Level FlightAware Approximate
10:11AM -35.2713 128.4916 284° West  Level FlightAware Approximate
10:11AM -35.2034 128.1664 285° West 30,000  Level Aus ATC (Calculated)
10:12AM -35.1683 128.0000 285° West 30,000  Level Aus ATC (Calculated)
10:13AM -35.2835 128.0000 180° South  Level FlightAware Approximate
10:14AM -35.2535 127.8638 285° West  Level Estimated
10:15AM -35.2195 127.7291 287° West  Level FlightAware Approximate
10:16AM -35.1853 127.5945 287° West  Level FlightAware Approximate
10:16AM -35.0061 127.2454 285° West 30,000  Level Aus ATC (Calculated)
10:17AM -35.1510 127.4600 287° West  Level FlightAware Approximate
10:18AM -34.9738 127.0983 285° West  Level FlightAware Approximate
10:18AM -34.9648 127.0573 285° West 30,000  Level Aus ATC (Calculated)
10:20AM -34.9082 126.8018 285° West  Level FlightAware Approximate
10:21AM -34.8780 126.6663 285° West  Level FlightAware Approximate
10:21AM -34.8392 126.4939 286° West 30,000  Level Aus ATC (Calculated)
10:23AM -34.8055 126.3451 285° West  Level FlightAware Approximate
10:24AM -34.7748 126.2100 285° West  Level FlightAware Approximate
10:25AM -34.7439 126.0749 286° West  Level FlightAware Approximate
10:26AM -34.7128 125.9400 286° West  Level FlightAware Approximate
10:26AM -34.6677 125.7454 286° West 30,000  Level Aus ATC (Calculated)
10:27AM -34.6816 125.8051 286° West  Level FlightAware Approximate
10:28AM -34.6332 125.5972 286° West  Level FlightAware Approximate
10:28AM -34.6023 125.4655 286° West 30,000  Level Aus ATC (Calculated)
10:29AM -34.6016 125.4626 286° West  Level FlightAware Approximate
10:30AM -34.5700 125.3288 286° West  Level FlightAware Approximate
10:30AM -34.5361 125.1861 287° West 30,000  Level Aus ATC (Calculated)
10:31AM -34.5140 125.0930 287° West 30,000  Level Aus ATC (Calculated)
10:33AM -34.4648 124.8883 286° West  Level FlightAware Approximate
10:33AM -34.4434 124.7997 287° West 30,000  Level Aus ATC (Calculated)
10:35AM -34.5061 125.0600 106° East  Level FlightAware Approximate
10:36AM -34.4740 124.9265 286° West  Level FlightAware Approximate
10:36AM -34.3213 124.3001 287° West 30,000  Level Aus ATC (Calculated)
10:38AM -34.3714 124.5041 107° East  Level FlightAware Approximate
10:38AM -34.2471 124.0010 287° West 30,000  Level Aus ATC (Calculated)
10:39AM -34.3390 124.3709 286° West  Level Estimated
10:40AM -34.2066 123.8395 287° West  Level FlightAware Approximate
10:41AM -34.1732 123.7070 287° West  Level FlightAware Approximate
10:41AM -34.1469 123.6030 288° West 30,000  Level Aus ATC (Calculated)
10:43AM -34.0947 123.3978 287° West  Level FlightAware Approximate
10:44AM -34.0609 123.2656 287° West  Level FlightAware Approximate
10:45AM -34.0269 123.1335 287° West  Level FlightAware Approximate
10:46AM -33.9927 123.0015 287° West  Level FlightAware Approximate
10:46AM -33.9686 122.9088 288° West 30,000  Level Aus ATC (Calculated)
10:48AM -33.9153 122.7045 287° West  Level FlightAware Approximate
10:49AM -33.8807 122.5729 288° West  Level FlightAware Approximate
10:50AM -33.8459 122.4413 288° West  Level FlightAware Approximate
10:51AM -33.8110 122.3098 288° West  Level FlightAware Approximate
10:51AM -33.7864 122.2175 289° West 30,000  Level Aus ATC (Calculated)
10:53AM -33.7313 122.0119 288° West  Level FlightAware Approximate
10:53AM -33.7072 121.9221 289° West 30,000  Level Aus ATC (Calculated)
10:54AM -33.6960 121.8808 288° West  Level FlightAware Approximate
10:55AM -33.6577 121.7396 288° West  Level FlightAware Approximate
10:56AM -33.6931 121.8699 108° East  Level FlightAware Approximate
10:56AM -33.5755 121.4693 290° West 30,000  Level Aus ATC (Calculated)
10:57AM -33.6577 121.7396 288° West  Level FlightAware Approximate
10:58AM -33.6177 121.6112 110° East  Level FlightAware Approximate
10:58AM -33.4907 121.1862 290° West 30,000  Level Aus ATC (Calculated)
10:59AM -33.4694 121.1156 290° West 30,000  Level Aus ATC (Calculated)
11:01AM -33.5397 121.3494 110° East  Level FlightAware Approximate
11:01AM -33.3838 120.8332 290° West 30,000  Level Aus ATC (Calculated)
11:02AM -33.3407 120.6923 290° West 30,000  Level Aus ATC (Calculated)
11:03AM -33.3191 120.6218 290° West 30,000  Level Aus ATC (Calculated)
11:05AM -33.3903 120.8548 110° East  Level FlightAware Approximate
11:05AM -33.2106 120.2702 290° West 30,000  Level Aus ATC (Calculated)
11:06AM -33.4290 120.9821 110° East  Level FlightAware Approximate
11:07AM -33.1642 120.1013 289° West  Level Estimated
11:08AM -33.1233 119.9754 291° West  Level FlightAware Approximate
11:08AM -33.1011 119.9195 290° West 30,000  Level Aus ATC (Calculated)
11:10AM -33.0248 119.6775 291° West  Level FlightAware Approximate
11:10AM -33.0024 119.5912 291° West 414 476 30,200  Level Aus ATC (RADAR)
11:11AM -32.9566 119.4636 293° West 416 479 30,200  Level Aus ATC (RADAR)
11:12AM -32.9020 119.3031 292° West 411 473 30,200 -120 Level Aus ATC (RADAR)
11:12AM -32.8890 119.2500 292° West 419 482 30,000  Descending FlightAware
11:13AM -32.8657 119.1965 292° West 407 468 30,200  Climbing Aus ATC (RADAR)
11:13AM -32.8640 119.1740 291° West 416 479 30,000 -240 Descending FlightAware
11:14AM -32.8340 119.0790 291° West 416 479 30,000  Level FlightAware
11:14AM -32.8130 119.0140 291° West 414 476 30,000 60 Level FlightAware
11:15AM -32.7780 118.9192 291° West 405 466 30,100  Climbing Aus ATC (RADAR)
11:15AM -32.7830 118.9210 291° West 413 475 30,000 -180 Descending FlightAware
11:15AM -32.7610 118.8550 292° West 412 474 30,000 60 Level FlightAware
11:16AM -32.7334 118.7825 292° West 400 460 30,100  Climbing Aus ATC (RADAR)
11:16AM -32.7340 118.7710 292° West 412 474 30,000 -120 Descending FlightAware
11:17AM -32.7030 118.6770 291° West 413 475 30,000  Level FlightAware
11:17AM -32.6820 118.6130 291° West 413 475 30,000 60 Level FlightAware
11:18AM -32.6444 118.5079 291° West 405 466 30,100  Climbing Aus ATC (RADAR)
11:18AM -32.6430 118.4940 291° West 415 478 30,000 -180 Descending FlightAware
11:19AM -32.6150 118.4090 291° West 411 473 30,000  Level FlightAware
11:20AM -32.5720 118.2790 291° West 411 473 30,000  Level FlightAware
11:21AM -32.5420 118.1860 291° West 412 474 30,000 60 Level FlightAware
11:21AM -32.5164 118.1170 291° West 404 465 30,100  Climbing Aus ATC (RADAR)
11:22AM -32.5070 118.0810 291° West 414 476 30,000 -120 Descending FlightAware
11:22AM -32.4820 118.0080 292° West 413 475 30,000  Level FlightAware
11:23AM -32.4500 117.9120 292° West 413 475 30,000 60 Level FlightAware
11:23AM -32.4277 117.8533 292° West 401 461 30,100 -300 Climbing Aus ATC (RADAR)
11:24AM -32.4210 117.8260 292° West 409 471 29,800 -900 Descending FlightAware
11:24AM -32.3920 117.7380 291° West 376 433 29,200 -960 Descending FlightAware
11:25AM -32.3680 117.6670 292° West 356 410 28,500 -1,080 Descending FlightAware
11:25AM -32.3501 117.6041 292° West 331 381 28,000 -1,020 Descending Aus ATC (RADAR)
11:25AM -32.3540 117.6140 292° West 336 387 28,000 -900 Level FlightAware
11:26AM -32.3390 117.5520 286° West 325 374 27,500 -1,320 Descending FlightAware
11:27AM -32.3175 117.4663 286° West 313 360 26,300 -1,620 Descending Aus ATC (RADAR)
11:27AM -32.3200 117.4730 286° West 324 373 26,300 -1,740 Level FlightAware
11:28AM -32.2995 117.3898 286° West 309 356 25,000 -1,620 Descending Aus ATC (RADAR)
11:28AM -32.2960 117.3730 286° West 322 371 24,700 -1,980 Descending FlightAware
11:28AM -32.2850 117.3260 285° West 324 373 23,700 -2,400 Descending FlightAware
11:29AM -32.2748 117.2870 285° West 316 364 22,900 -1,920 Descending Aus ATC (RADAR)
11:29AM -32.2710 117.2680 285° West 329 379 22,600 -2,040 Descending FlightAware
11:30AM -32.2510 117.1870 286° West 336 387 20,900 -2,280 Descending FlightAware
11:30AM -32.2408 117.1468 286° West 322 371 20,200 -1,920 Descending Aus ATC (RADAR)
11:30AM -32.2370 117.1300 286° West 338 389 19,800 -1,680 Descending FlightAware
11:31AM -32.2189 117.0584 286° West 323 372 18,800 -1,500 Descending Aus ATC (RADAR)
11:31AM -32.2190 117.0550 286° West 323 372 18,800 -900 Level FlightAware
11:31AM -32.2060 117.0000 286° West 305 351 18,200 -1,260 Descending FlightAware
11:32AM -32.1940 116.9545 286° West 285 328 17,600 -1,920 Descending Aus ATC (RADAR)
11:32AM -32.1860 116.9220 286° West 301 346 16,600 -2,280 Descending FlightAware
11:33AM -32.1590 116.8710 302° West 319 367 15,300 -2,040 Descending FlightAware
11:33AM -32.1377 116.8372 302° West 305 351 14,800 -1,560 Descending Aus ATC (RADAR)
11:33AM -32.1290 116.8190 302° West 316 364 14,400 -1,620 Descending FlightAware
11:34AM -32.0887 116.7528 302° West 300 345 13,200 -1,440 Descending Aus ATC (RADAR)
11:34AM -32.0870 116.7500 302° West 309 356 13,100 -1,380 Descending FlightAware
11:35AM -32.0660 116.7120 303° West 300 345 12,400 -1,680 Descending FlightAware
11:35AM -32.0369 116.6637 303° West 293 337 11,600 -1,500 Descending Aus ATC (RADAR)
11:35AM -32.0320 116.6540 303° West 297 342 11,400 -1,440 Descending FlightAware
11:36AM -32.0050 116.6080 305° West 294 338 10,500 -1,500 Descending FlightAware
11:36AM -31.9860 116.5750 304° West 291 335 9,900 -1,500 Descending FlightAware
11:37AM -31.9720 116.5510 305° West 292 336 9,400 -1,620 Descending FlightAware
11:37AM -31.9500 116.5140 305° West 288 331 8,700 -1,560 Descending FlightAware
11:37AM -31.9420 116.5010 306° West 286 329 8,500 -1,500 Descending FlightAware
11:38AM -31.9160 116.4560 304° West 281 323 7,600 -1,440 Descending FlightAware
11:38AM -31.9040 116.4350 304° West 278 320 7,300 -1,380 Descending FlightAware
11:38AM -31.8900 116.4120 306° West 276 318 6,800 -1,320 Descending FlightAware
11:39AM -31.8660 116.3710 305° West 267 307 6,100 -1,380 Descending FlightAware
11:39AM -31.8494 116.3438 305° West 259 298 5,600 -1,500 Descending Aus ATC (RADAR)
11:39AM -31.8520 116.3470 305° West 265 305 5,600 -1,140 Level FlightAware
11:40AM -31.8340 116.3170 305° West 261 300 5,100 -1,380 Descending FlightAware
11:40AM -31.8076 116.2727 305° West 253 291 4,300 -1,380 Descending Aus ATC (RADAR)
11:40AM -31.8100 116.2770 305° West 261 300 4,300 -1,140 Level FlightAware
11:41AM -31.7910 116.2400 301° West 254 292 3,700 -960 Descending FlightAware
11:41AM -31.7860 116.2200 286° West 248 285 3,600 -420 Descending FlightAware
11:41AM -31.7820 116.2010 284° West 238 274 3,500 -540 Descending FlightAware
11:42AM -31.7760 116.1760 286° West 226 260 3,300 -600 Descending FlightAware
11:42AM -31.7670 116.1350 284° West 216 249 3,000 -480 Descending FlightAware
11:43AM -31.7630 116.1190 286° West 216 249 2,900 -360 Descending FlightAware
11:43AM -31.7580 116.0970 285° West 214 246 2,800 -240 Descending FlightAware
11:43AM -31.7560 116.0850 281° West 218 251 2,800 -600 Level FlightAware
11:43AM -31.7620 116.0630 252° West 222 255 2,500 -480 Descending FlightAware
11:44AM -31.7750 116.0440 231° Southwest 212 244 2,500  Level FlightAware
11:44AM -31.7880 116.0250 231° Southwest 215 247 2,500 -180 Level FlightAware
11:44AM -31.8010 116.0090 226° Southwest 204 235 2,400 -780 Descending FlightAware
11:45AM -31.8400 115.9940 198° South 185 213 1,700 -900 Descending FlightAware
11:46AM -31.8630 115.9880 192° South 152 175 1,300 -780 Descending FlightAware
11:46AM -31.8780 115.9830 196° South 138 159 1,000 -720 Descending FlightAware
11:46AM -31.8910 115.9790 195° South 131 151 800 -720 Descending FlightAware
11:47AM -31.8990 115.9770 192° South 132 152 600 -840 Descending FlightAware
11:47AM -31.9090 115.9740 194° South 135 155 400 -780 Descending FlightAware
11:47AM -31.9230 115.9700 194° South 136 157 100 -720 Descending FlightAware